createdAt,value
2022-10-05T00:01:38.260Z,64.93
2022-10-05T00:04:16.963Z,64.40
2022-10-05T00:06:54.945Z,64.61
2022-10-05T00:09:26.675Z,64.79
2022-10-05T00:12:03.812Z,64.36
2022-10-05T00:14:42.017Z,64.21
2022-10-05T00:17:20.921Z,64.57
2022-10-05T00:19:57.597Z,64.55
2022-10-05T00:22:34.204Z,64.92
2022-10-05T00:25:14.386Z,65.16
2022-10-05T00:27:45.326Z,65.22
2022-10-05T00:30:20.259Z,65.34
2022-10-05T00:32:51.726Z,65.99
2022-10-05T00:35:29.639Z,65.89
2022-10-05T00:38:00.521Z,65.17
2022-10-05T00:40:39.572Z,65.61
2022-10-05T00:43:28.808Z,65.09
2022-10-05T00:46:07.923Z,64.79
2022-10-05T00:48:48.781Z,65.30
2022-10-05T00:51:27.708Z,65.03
2022-10-05T00:54:17.484Z,64.34
2022-10-05T00:57:05.471Z,64.75
2022-10-05T00:59:49.297Z,65.63
2022-10-05T01:02:30.870Z,65.96
2022-10-05T01:05:08.262Z,65.34
2022-10-05T01:07:48.491Z,65.70
2022-10-05T01:10:27.252Z,65.45
2022-10-05T01:13:08.217Z,66.23
2022-10-05T01:15:46.519Z,65.65
2022-10-05T01:18:22.221Z,66.80
2022-10-05T01:21:05.979Z,66.68
2022-10-05T01:24:03.589Z,66.73
2022-10-05T01:27:15.747Z,66.41
2022-10-05T01:29:55.447Z,66.09
2022-10-05T01:32:32.805Z,65.78
2022-10-05T01:35:16.564Z,65.97
2022-10-05T01:37:55.460Z,66.37
2022-10-05T01:40:36.023Z,66.85
2022-10-05T01:43:17.274Z,66.79
2022-10-05T01:45:59.146Z,66.81
2022-10-05T01:48:38.509Z,66.78
2022-10-05T01:51:15.500Z,67.12
2022-10-05T01:53:58.505Z,66.88
2022-10-05T01:56:38.481Z,66.98
2022-10-05T01:59:19.053Z,66.35
2022-10-05T02:02:01.706Z,66.73
2022-10-05T02:05:01.023Z,66.61
2022-10-05T02:07:32.903Z,67.12
2022-10-05T02:10:08.963Z,66.66
2022-10-05T02:12:41.265Z,66.78
2022-10-05T02:15:16.743Z,67.13
2022-10-05T02:17:53.971Z,67.29
2022-10-05T02:20:27.907Z,67.84
2022-10-05T02:23:05.344Z,68.28
2022-10-05T02:25:40.973Z,68.16
2022-10-05T02:28:16.208Z,68.07
2022-10-05T02:30:51.649Z,68.25
2022-10-05T02:33:30.806Z,68.52
2022-10-05T02:36:05.621Z,68.29
2022-10-05T02:38:43.257Z,68.57
2022-10-05T02:41:23.052Z,68.26
2022-10-05T02:44:02.727Z,67.85
2022-10-05T02:46:41.142Z,68.17
2022-10-05T02:49:48.325Z,68.53
2022-10-05T02:52:31.060Z,68.75
2022-10-05T02:55:15.523Z,68.95
2022-10-05T02:57:55.195Z,68.65
2022-10-05T03:00:28.316Z,69.25
2022-10-05T03:03:05.179Z,68.64
2022-10-05T03:05:47.308Z,68.67
2022-10-05T03:08:25.476Z,68.28
2022-10-05T03:11:07.576Z,68.72
2022-10-05T03:13:49.692Z,68.64
2022-10-05T03:17:02.735Z,68.77
2022-10-05T03:20:04.440Z,69.75
2022-10-05T03:22:49.761Z,69.92
2022-10-05T03:25:53.635Z,70.00
2022-10-05T03:32:16.903Z,68.77
2022-10-05T03:34:54.139Z,69.03
2022-10-05T03:37:37.783Z,70.19
2022-10-05T03:40:30.907Z,70.97
2022-10-05T03:43:20.701Z,71.26
2022-10-05T03:46:00.348Z,71.96
2022-10-05T03:48:38.057Z,71.46
2022-10-05T03:51:15.287Z,71.14
2022-10-05T03:53:52.221Z,71.41
2022-10-05T03:56:33.702Z,72.00
2022-10-05T03:59:11.944Z,71.84
2022-10-05T04:01:48.549Z,71.69
2022-10-05T04:04:25.828Z,71.81
2022-10-05T04:06:58.931Z,71.05
2022-10-05T04:09:34.886Z,71.36
2022-10-05T04:12:19.364Z,71.68
2022-10-05T04:14:56.413Z,72.13
2022-10-05T04:17:34.942Z,72.01
2022-10-05T04:20:09.015Z,71.47
2022-10-05T04:22:43.647Z,72.12
2022-10-05T04:25:20.516Z,72.46
2022-10-05T04:28:01.208Z,72.41
2022-10-05T04:30:34.246Z,71.80
2022-10-05T04:33:04.831Z,71.83
2022-10-05T04:35:45.312Z,72.15
2022-10-05T04:38:28.037Z,71.87
2022-10-05T04:41:12.648Z,72.31
2022-10-05T04:43:55.974Z,72.10
2022-10-05T04:46:41.373Z,71.98
2022-10-05T04:49:24.905Z,71.90
2022-10-05T04:51:59.975Z,72.72
2022-10-05T04:54:43.592Z,72.25
2022-10-05T04:57:20.594Z,71.69
2022-10-05T05:00:05.989Z,71.50
2022-10-05T05:02:54.526Z,71.96
2022-10-05T05:05:34.467Z,72.17
2022-10-05T05:08:18.420Z,71.56
2022-10-05T05:11:15.832Z,71.71
2022-10-05T05:14:19.406Z,71.20
2022-10-05T05:17:12.188Z,71.69
2022-10-05T05:19:54.069Z,72.69
2022-10-05T05:22:34.588Z,72.87
2022-10-05T05:25:23.098Z,72.59
2022-10-05T05:27:57.721Z,72.74
2022-10-05T05:30:43.605Z,73.11
2022-10-05T05:33:36.603Z,71.63
2022-10-05T05:36:23.255Z,71.22
2022-10-05T05:39:09.684Z,71.53
2022-10-05T05:41:41.808Z,71.59
2022-10-05T05:44:22.832Z,71.79
2022-10-05T05:47:04.068Z,72.33
2022-10-05T05:57:57.627Z,71.93
2022-10-05T06:00:33.131Z,71.55
2022-10-05T06:03:22.437Z,72.29
2022-10-05T06:06:13.178Z,71.34
2022-10-05T06:08:48.276Z,71.71
2022-10-05T06:11:23.778Z,70.71
2022-10-05T06:13:58.631Z,71.38
2022-10-05T06:16:38.746Z,71.95
2022-10-05T06:19:15.068Z,71.21
2022-10-05T06:21:54.662Z,70.63
2022-10-05T06:24:29.195Z,70.52
2022-10-05T06:27:27.399Z,70.27
2022-10-05T06:30:06.277Z,70.45
2022-10-05T06:32:46.350Z,70.26
2022-10-05T06:35:29.266Z,70.26
2022-10-05T06:38:22.254Z,70.70
2022-10-05T06:41:02.354Z,70.18
2022-10-05T06:43:56.143Z,70.71
2022-10-05T06:46:31.707Z,70.84
2022-10-05T06:49:14.505Z,70.36
2022-10-05T06:51:53.917Z,70.15
2022-10-05T06:54:38.756Z,70.37
2022-10-05T06:57:17.421Z,69.14
2022-10-05T06:59:58.977Z,69.48
2022-10-05T07:02:47.793Z,69.99
2022-10-05T07:09:18.654Z,70.13
2022-10-05T07:12:08.624Z,69.84
2022-10-05T07:14:51.959Z,70.13
2022-10-05T07:17:45.342Z,69.99
2022-10-05T07:20:31.699Z,69.39
2022-10-05T07:23:19.812Z,69.82
2022-10-05T07:25:53.945Z,68.94
2022-10-05T07:28:34.294Z,69.38
2022-10-05T07:31:12.580Z,69.37
2022-10-05T07:33:50.061Z,69.97
2022-10-05T07:36:38.148Z,70.14
2022-10-05T07:39:17.134Z,70.10
2022-10-05T07:41:52.589Z,69.38
2022-10-05T07:44:34.255Z,69.25
2022-10-05T07:47:13.271Z,69.04
2022-10-05T07:49:50.060Z,69.14
2022-10-05T07:52:31.077Z,69.13
2022-10-05T07:55:10.321Z,69.11
2022-10-05T07:57:46.544Z,68.94
2022-10-05T08:00:23.036Z,68.21
2022-10-05T08:02:56.551Z,67.46
2022-10-05T08:05:31.730Z,67.92
2022-10-05T08:08:09.628Z,67.82
2022-10-05T08:10:44.543Z,67.99
2022-10-05T08:13:21.344Z,67.74
2022-10-05T08:16:00.954Z,67.83
2022-10-05T08:18:51.272Z,68.17
2022-10-05T08:21:26.071Z,67.48
2022-10-05T08:24:00.508Z,68.39
2022-10-05T08:26:41.304Z,66.98
2022-10-05T08:29:18.949Z,67.96
2022-10-05T08:31:54.684Z,67.08
2022-10-05T08:34:32.669Z,67.21
2022-10-05T08:37:07.239Z,65.82
2022-10-05T08:39:44.299Z,66.11
2022-10-05T08:42:45.518Z,65.89
2022-10-05T08:45:41.003Z,65.68
2022-10-05T08:48:56.570Z,64.93
2022-10-05T08:51:42.534Z,64.82
2022-10-05T08:54:44.452Z,63.98
2022-10-05T08:57:36.484Z,64.47
2022-10-05T09:00:18.297Z,65.04
2022-10-05T09:03:09.593Z,63.82
2022-10-05T09:06:01.712Z,63.88
2022-10-05T09:09:09.588Z,62.52
2022-10-05T09:11:42.244Z,62.83
2022-10-05T09:15:01.495Z,62.76
2022-10-05T09:18:08.094Z,62.14
2022-10-05T09:20:53.834Z,62.18
2022-10-05T09:23:43.028Z,61.87
2022-10-05T09:26:48.019Z,61.59
2022-10-05T09:29:47.184Z,62.38
2022-10-05T09:32:39.255Z,62.08
2022-10-05T09:35:25.484Z,62.31
2022-10-05T09:38:16.054Z,61.79
2022-10-05T09:41:18.310Z,62.06
2022-10-05T09:44:36.361Z,62.61
2022-10-05T09:47:38.123Z,61.72
2022-10-05T09:50:20.787Z,62.39
2022-10-05T09:53:01.719Z,61.74
2022-10-05T09:56:05.306Z,61.78
2022-10-05T09:59:09.550Z,61.42
2022-10-05T10:01:58.079Z,61.42
2022-10-05T10:04:52.650Z,62.10
2022-10-05T10:07:48.484Z,62.32
2022-10-05T10:10:45.882Z,62.19
2022-10-05T10:13:45.828Z,60.55
2022-10-05T10:16:36.539Z,61.41
2022-10-05T10:19:55.568Z,62.12
2022-10-05T10:23:03.684Z,60.65
2022-10-05T10:25:57.116Z,61.25
2022-10-05T10:29:06.550Z,61.02
2022-10-05T10:31:48.496Z,60.83
2022-10-05T10:34:33.552Z,61.19
2022-10-05T10:37:34.516Z,60.58
2022-10-05T10:40:37.936Z,61.52
2022-10-05T10:43:32.149Z,60.37
2022-10-05T10:46:12.956Z,59.92
2022-10-05T10:48:53.792Z,60.27
2022-10-05T10:51:46.502Z,58.14
2022-10-05T10:54:49.816Z,58.33
2022-10-05T10:57:28.319Z,58.59
2022-10-05T11:00:30.110Z,58.58
2022-10-05T11:03:19.657Z,57.27
2022-10-05T11:06:33.415Z,57.88
2022-10-05T11:09:34.715Z,57.94
2022-10-05T11:12:53.177Z,57.86
2022-10-05T11:15:43.619Z,57.92
2022-10-05T11:18:20.475Z,57.94
2022-10-05T11:21:14.391Z,56.91
2022-10-05T11:24:24.889Z,56.70
2022-10-05T11:30:15.063Z,54.61
2022-10-05T11:33:06.355Z,53.72
2022-10-05T11:35:53.145Z,53.64
2022-10-05T11:38:54.958Z,53.45
2022-10-05T11:41:57.719Z,52.65
2022-10-05T11:44:54.482Z,51.35
2022-10-05T11:47:31.884Z,50.03
2022-10-05T11:50:14.780Z,50.72
2022-10-05T11:52:53.554Z,51.59
2022-10-05T11:55:29.888Z,51.96
2022-10-05T11:58:02.432Z,52.55
2022-10-05T12:00:40.583Z,52.09
2022-10-05T12:03:34.221Z,52.71
2022-10-05T12:06:19.463Z,52.69
2022-10-05T12:09:04.121Z,52.22
2022-10-05T12:11:46.535Z,52.00
2022-10-05T12:14:24.643Z,50.82
2022-10-05T12:17:03.355Z,51.11
2022-10-05T12:19:42.586Z,49.36
2022-10-05T12:22:19.904Z,49.56
2022-10-05T12:25:21.783Z,48.37
2022-10-05T12:27:55.731Z,48.19
2022-10-05T12:30:35.412Z,48.09
2022-10-05T12:33:11.762Z,46.26
2022-10-05T12:36:00.229Z,46.04
2022-10-05T12:39:03.552Z,44.57
2022-10-05T12:41:38.981Z,44.35
2022-10-05T12:44:20.475Z,44.23
2022-10-05T12:50:27.214Z,43.86
2022-10-05T12:53:11.061Z,43.32
2022-10-05T12:55:50.036Z,42.53
2022-10-05T12:58:31.944Z,42.62
2022-10-05T13:01:42.161Z,42.04
2022-10-05T13:04:25.564Z,41.55
2022-10-05T13:07:25.018Z,41.61
2022-10-05T13:10:05.717Z,41.89
2022-10-05T13:12:48.089Z,41.97
2022-10-05T13:15:26.595Z,42.99
2022-10-05T13:18:20.090Z,43.25
2022-10-05T13:20:57.002Z,42.66
2022-10-05T13:23:34.881Z,43.51
2022-10-05T13:26:13.359Z,43.93
2022-10-05T13:28:51.150Z,44.08
2022-10-05T13:31:34.744Z,43.66
2022-10-05T13:34:17.961Z,42.93
2022-10-05T13:37:02.319Z,42.34
2022-10-05T13:39:47.485Z,42.61
2022-10-05T13:42:27.120Z,41.08
2022-10-05T13:45:02.591Z,41.33
2022-10-05T13:47:40.112Z,41.33
2022-10-05T13:50:20.148Z,40.55
2022-10-05T13:52:59.258Z,40.80
2022-10-05T13:55:40.130Z,40.45
2022-10-05T13:58:22.092Z,40.45
2022-10-05T14:00:56.008Z,40.50
2022-10-05T14:03:47.395Z,40.26
2022-10-05T14:06:30.821Z,40.83
2022-10-05T14:09:13.392Z,39.98
2022-10-05T14:23:45.641Z,39.54
2022-10-05T14:26:38.321Z,38.75
2022-10-05T14:29:21.294Z,38.94
2022-10-05T14:31:57.642Z,39.35
2022-10-05T14:34:37.541Z,40.66
2022-10-05T14:37:45.137Z,40.53
2022-10-05T14:45:03.565Z,42.34
2022-10-05T14:52:34.707Z,42.49
2022-10-05T15:08:04.469Z,41.14
2022-10-05T15:33:58.526Z,42.43
2022-10-05T15:37:30.184Z,42.26
2022-10-05T15:40:04.369Z,42.94
2022-10-05T16:24:28.587Z,44.73
2022-10-05T16:39:07.014Z,46.14
2022-10-05T17:00:08.837Z,46.79
2022-10-05T17:02:55.025Z,46.92
2022-10-05T17:05:41.813Z,47.27
2022-10-05T17:08:30.518Z,47.40
2022-10-05T17:11:17.071Z,47.39
2022-10-05T17:14:10.233Z,46.84
2022-10-05T17:16:58.777Z,47.43
2022-10-05T17:19:53.341Z,47.82
2022-10-05T17:22:30.103Z,48.76
2022-10-05T17:25:09.711Z,48.85
2022-10-05T17:27:55.053Z,49.33
2022-10-05T17:30:48.547Z,49.73
2022-10-05T17:33:29.506Z,50.03
2022-10-05T17:36:24.023Z,50.02
2022-10-05T17:39:16.392Z,50.05
2022-10-05T17:41:53.720Z,50.01
2022-10-05T17:44:29.126Z,50.30
2022-10-05T17:47:17.502Z,50.11
2022-10-05T17:50:11.996Z,50.07
2022-10-05T17:53:01.266Z,50.17
2022-10-05T17:56:10.128Z,50.18
2022-10-05T17:59:10.972Z,51.09
2022-10-05T18:02:35.260Z,52.08
2022-10-05T18:05:42.617Z,52.89
2022-10-05T18:08:44.640Z,53.20
2022-10-05T18:11:50.668Z,53.86
2022-10-05T18:44:39.546Z,56.04
2022-10-05T18:48:57.332Z,57.30
2022-10-05T18:51:57.852Z,58.27
2022-10-05T18:54:46.480Z,58.61
2022-10-05T18:57:46.964Z,58.64
2022-10-05T19:04:33.908Z,59.79
2022-10-05T19:07:20.666Z,60.18
2022-10-05T19:10:10.204Z,60.54
2022-10-05T19:13:05.347Z,60.87
2022-10-05T19:15:42.668Z,61.05
2022-10-05T19:18:30.158Z,61.25
2022-10-05T19:21:10.546Z,61.61
2022-10-05T19:23:59.002Z,62.11
2022-10-05T19:26:54.172Z,61.64
2022-10-05T19:30:09.612Z,61.64
2022-10-05T19:33:01.398Z,61.38
2022-10-05T19:35:44.333Z,61.25
2022-10-05T19:38:28.795Z,61.56
2022-10-05T19:41:17.180Z,61.74
2022-10-05T19:44:07.007Z,61.77
2022-10-05T19:46:54.142Z,62.00
2022-10-05T19:50:05.550Z,62.20
2022-10-05T19:52:49.879Z,62.07
2022-10-05T19:55:39.710Z,61.89
2022-10-05T19:58:26.149Z,61.40
2022-10-05T20:01:02.012Z,61.73
2022-10-05T20:03:42.944Z,61.64
2022-10-05T20:06:14.253Z,60.97
2022-10-05T20:12:52.645Z,61.22
2022-10-05T20:15:44.352Z,61.86
2022-10-05T20:18:55.428Z,62.52
2022-10-05T20:21:47.838Z,62.01
2022-10-05T20:24:23.726Z,62.18
2022-10-05T20:30:46.210Z,63.38
2022-10-05T20:33:32.904Z,62.92
2022-10-05T20:36:04.283Z,63.49
2022-10-05T20:38:40.076Z,63.83
2022-10-05T20:41:15.201Z,63.57
2022-10-05T20:43:45.543Z,63.75
2022-10-05T20:46:19.256Z,64.23
2022-10-05T20:48:49.813Z,64.00
2022-10-05T20:51:21.221Z,63.60
2022-10-05T20:54:02.055Z,63.22
2022-10-05T20:56:33.523Z,63.16
2022-10-05T20:59:18.673Z,63.58
2022-10-05T21:01:52.614Z,64.30
2022-10-05T21:04:25.623Z,63.70
2022-10-05T21:06:56.587Z,63.73
2022-10-05T21:09:32.927Z,63.93
2022-10-05T21:12:03.694Z,64.45
2022-10-05T21:14:36.274Z,65.08
2022-10-05T21:17:12.013Z,65.61
2022-10-05T21:19:42.281Z,65.49
2022-10-05T21:22:13.334Z,65.45
2022-10-05T21:24:44.030Z,65.23
2022-10-05T21:27:14.971Z,65.13
2022-10-05T21:29:45.435Z,64.88
2022-10-05T21:32:18.913Z,64.95
2022-10-05T21:34:48.937Z,65.35
2022-10-05T21:37:19.953Z,65.37
2022-10-05T21:39:50.049Z,65.48
2022-10-05T21:42:20.388Z,65.38
2022-10-05T21:44:50.281Z,65.08
2022-10-05T21:47:23.411Z,64.65
2022-10-05T21:49:57.636Z,65.13
2022-10-05T21:52:30.723Z,64.43
2022-10-05T21:55:01.430Z,64.59
2022-10-05T21:57:36.439Z,63.92
2022-10-05T22:00:10.566Z,63.72
2022-10-05T22:02:43.516Z,64.43
2022-10-05T22:05:13.977Z,64.19
2022-10-05T22:07:44.359Z,64.61
2022-10-05T22:10:14.747Z,65.54
2022-10-05T22:12:46.905Z,64.72
2022-10-05T22:15:18.220Z,64.42
2022-10-05T22:17:51.528Z,64.91
2022-10-05T22:20:26.930Z,64.76
2022-10-05T22:23:19.548Z,64.46
2022-10-05T22:25:51.053Z,64.65
2022-10-05T22:28:21.206Z,64.78
2022-10-05T22:30:52.021Z,64.47
2022-10-05T22:33:24.807Z,63.65
2022-10-05T22:35:55.326Z,64.08
2022-10-05T22:38:25.777Z,64.93
2022-10-05T22:40:56.329Z,64.87
2022-10-05T22:43:27.046Z,64.10
2022-10-05T22:45:57.780Z,63.86
2022-10-05T22:48:30.908Z,63.70
2022-10-05T22:51:01.345Z,64.19
2022-10-05T22:53:31.198Z,64.76
2022-10-05T22:56:07.065Z,66.29
2022-10-05T22:58:37.966Z,66.25
2022-10-05T23:01:10.462Z,66.19
2022-10-05T23:03:44.727Z,65.87
2022-10-05T23:06:18.078Z,66.16
2022-10-05T23:08:49.726Z,65.75
2022-10-05T23:11:22.309Z,66.85
2022-10-05T23:13:53.885Z,66.84
2022-10-05T23:16:26.986Z,67.05
2022-10-05T23:19:01.847Z,67.17
2022-10-05T23:21:33.607Z,67.46
2022-10-05T23:24:04.678Z,66.97
2022-10-05T23:26:36.161Z,67.25
2022-10-05T23:29:06.735Z,67.88
2022-10-05T23:31:37.410Z,68.05
2022-10-05T23:34:10.868Z,68.39
2022-10-05T23:36:41.946Z,68.98
2022-10-05T23:39:14.079Z,68.96
2022-10-05T23:41:44.818Z,69.23
2022-10-05T23:44:16.414Z,69.03
2022-10-05T23:46:47.012Z,68.36
2022-10-05T23:49:20.569Z,68.50
2022-10-05T23:51:51.688Z,68.95
2022-10-05T23:54:23.473Z,69.19
2022-10-05T23:56:54.662Z,68.93
2022-10-05T23:59:26.039Z,70.11
